Time;durP1;ratioP1;P1;durP2;ratioP2;P2;SDS_P1;SDS_P2;PMS_P1;PMS_P2;Temp;Humidity;BMP_temperature;BMP_pressure;BME280_temperature;BME280_humidity;BME280_pressure;Samples;Min_cycle;Max_cycle;Signal;HPM_P1;HPM_P2
2023/07/11 00:00:23;;;;;;;3.25;1.40;;;;;;;19.20;59.94;101837.69;7379859;19;19938;-67
2023/07/11 00:02:52;;;;;;;5.20;1.80;;;;;;;19.20;60.11;101839.63;7378338;19;20549;-68
2023/07/11 00:05:21;;;;;;;3.90;1.80;;;;;;;19.15;60.50;101842.13;7385431;19;19922;-68
2023/07/11 00:07:52;;;;;;;2.50;1.23;;;;;;;19.12;60.50;101834.34;7378049;19;20285;-69
2023/07/11 00:10:22;;;;;;;4.43;2.25;;;;;;;19.10;60.57;101837.28;7378661;19;19926;-70
2023/07/11 00:12:51;;;;;;;3.75;1.50;;;;;;;19.08;60.34;101835.81;7380606;19;19931;-69
2023/07/11 00:15:20;;;;;;;2.63;1.40;;;;;;;19.05;60.43;101839.81;7379021;19;19918;-70
2023/07/11 00:17:50;;;;;;;3.17;1.42;;;;;;;19.01;60.84;101831.19;7381460;19;19922;-68
2023/07/11 00:20:20;;;;;;;4.25;1.40;;;;;;;18.95;60.94;101834.75;7377622;19;19926;-69
2023/07/11 00:22:49;;;;;;;3.28;1.45;;;;;;;18.91;61.45;101838.09;7379644;19;19975;-70
2023/07/11 00:25:20;;;;;;;3.70;1.50;;;;;;;18.89;61.92;101834.75;7380382;19;19948;-68
2023/07/11 00:27:48;;;;;;;;;;;;;;;18.56;63.17;101843.69;7383562;19;19926;-68
2023/07/11 00:30:17;;;;;;;3.85;1.60;;;;;;;18.75;61.88;101835.78;7378309;19;20356;-68
2023/07/11 00:32:46;;;;;;;2.83;1.58;;;;;;;18.75;62.16;101822.97;7378686;19;19994;-69
2023/07/11 00:35:14;;;;;;;4.18;1.45;;;;;;;18.76;62.23;101819.19;7378508;19;20276;-70
2023/07/11 00:37:43;;;;;;;4.38;1.70;;;;;;;18.74;62.14;101820.44;7379331;19;19926;-68
2023/07/11 00:40:13;;;;;;;3.58;1.73;;;;;;;18.70;61.99;101817.28;7379031;19;20352;-69
2023/07/11 00:42:45;;;;;;;2.58;1.48;;;;;;;18.68;62.50;101821.28;7379117;19;19919;-69
2023/07/11 00:46:11;;;;;;;3.65;1.58;;;;;;;18.53;63.27;101810.53;7377091;19;19935;-68
2023/07/11 00:48:42;;;;;;;3.47;1.73;;;;;;;18.64;62.28;101812.63;7373342;19;19923;-68
2023/07/11 00:51:14;;;;;;;4.95;1.38;;;;;;;18.64;62.55;101809.91;7371717;19;20027;-69
2023/07/11 00:53:45;;;;;;;3.15;1.50;;;;;;;18.65;62.20;101811.59;7373486;19;19984;-68
2023/07/11 00:56:21;;;;;;;2.97;1.70;;;;;;;18.65;62.50;101795.22;7372696;19;19923;-68
2023/07/11 00:58:54;;;;;;;3.88;1.30;;;;;;;18.63;62.53;101800.06;7377100;19;19919;-70
2023/07/11 01:01:23;;;;;;;4.25;1.20;;;;;;;18.63;62.12;101808.25;7372821;19;19939;-68
2023/07/11 01:03:54;;;;;;;4.93;1.40;;;;;;;18.62;61.98;101812.03;7375859;19;19943;-68
2023/07/11 01:06:25;;;;;;;1.98;1.35;;;;;;;18.61;62.02;101804.88;7378463;19;20004;-68
2023/07/11 01:08:56;;;;;;;3.22;1.25;;;;;;;18.63;62.06;101801.94;7373253;19;22572;-69
2023/07/11 01:11:28;;;;;;;1.60;1.02;;;;;;;18.63;62.18;101796.50;7372052;19;20278;-69
2023/07/11 01:14:00;;;;;;;3.10;1.33;;;;;;;18.61;62.81;101793.97;7381339;19;19930;-68
2023/07/11 01:16:29;;;;;;;4.43;1.40;;;;;;;18.59;62.82;101796.88;7381407;19;19922;-68
2023/07/11 01:18:57;;;;;;;3.40;1.50;;;;;;;18.61;62.36;101787.66;7380145;19;19922;-68
2023/07/11 01:21:29;;;;;;;3.28;1.38;;;;;;;18.59;63.00;101796.88;7378747;19;19958;-70
2023/07/11 01:23:57;;;;;;;3.50;1.20;;;;;;;18.55;62.97;101789.34;7382606;19;20325;-69
2023/07/11 01:26:26;;;;;;;4.10;1.83;;;;;;;18.52;63.39;101784.25;7387064;19;20005;-69
2023/07/11 01:28:55;;;;;;;7.43;2.53;;;;;;;18.50;62.88;101776.28;7387247;19;19918;-68
2023/07/11 01:31:24;;;;;;;5.18;1.50;;;;;;;18.50;63.13;101780.91;7383955;19;19926;-68
2023/07/11 01:33:53;;;;;;;3.30;1.38;;;;;;;18.51;63.24;101782.56;7383445;19;20014;-67
2023/07/11 01:36:21;;;;;;;4.13;1.60;;;;;;;18.51;63.19;101761.56;7382436;19;20263;-69
2023/07/11 01:38:52;;;;;;;2.88;1.40;;;;;;;18.51;63.52;101764.31;7385465;19;19930;-69
2023/07/11 01:41:21;;;;;;;3.72;1.23;;;;;;;18.49;63.41;101766.41;7384813;19;19949;-69
2023/07/11 01:43:50;;;;;;;3.70;1.58;;;;;;;18.48;63.74;101762.00;7382907;19;19997;-70
2023/07/11 01:46:18;;;;;;;4.43;1.85;;;;;;;18.48;63.96;101761.16;7382610;19;19962;-68
2023/07/11 01:48:47;;;;;;;4.07;1.48;;;;;;;18.48;63.75;101758.44;7384129;19;19922;-69
2023/07/11 01:51:17;;;;;;;4.43;1.25;;;;;;;18.47;63.59;101757.59;7382589;19;19923;-69
2023/07/11 01:53:46;;;;;;;3.40;1.67;;;;;;;18.44;63.42;101762.63;7385614;19;19926;-69
2023/07/11 01:56:17;;;;;;;7.35;2.10;;;;;;;18.42;63.91;101764.72;7379824;19;19943;-70
2023/07/11 01:58:46;;;;;;;4.95;2.00;;;;;;;18.37;63.85;101754.44;7384334;19;19926;-71
2023/07/11 02:01:14;;;;;;;5.00;1.30;;;;;;;18.36;64.35;101758.19;7382689;19;19922;-70
2023/07/11 02:03:43;;;;;;;2.40;1.73;;;;;;;18.33;64.73;101752.31;7384933;19;20038;-68
2023/07/11 02:06:11;;;;;;;4.30;1.55;;;;;;;18.33;64.49;101752.31;7387562;19;20210;-69
2023/07/11 02:08:40;;;;;;;4.95;2.20;;;;;;;18.29;64.83;101742.88;7384676;19;19948;-69
2023/07/11 02:11:09;;;;;;;3.00;1.35;;;;;;;18.27;65.40;101742.22;7382699;19;20300;-69
2023/07/11 02:13:40;;;;;;;3.15;1.60;;;;;;;18.24;65.23;101735.31;7383577;19;19985;-70
2023/07/11 02:16:09;;;;;;;5.10;1.60;;;;;;;18.21;65.36;101732.97;7380509;19;19914;-69
2023/07/11 02:18:38;;;;;;;4.78;1.80;;;;;;;18.18;65.28;101727.09;7384115;19;20340;-69
2023/07/11 02:21:07;;;;;;;5.97;2.25;;;;;;;18.17;65.63;101719.94;7383006;19;20233;-67
2023/07/11 02:23:35;;;;;;;5.28;1.63;;;;;;;18.16;65.92;101719.13;7384269;19;19926;-69
2023/07/11 02:26:04;;;;;;;3.22;1.63;;;;;;;18.17;65.81;101711.78;7381224;19;20015;-71
2023/07/11 02:28:33;;;;;;;3.55;2.20;;;;;;;18.16;65.90;101707.38;7383649;19;19919;-70
2023/07/11 02:31:04;;;;;;;5.45;1.60;;;;;;;18.18;65.86;101702.53;7383534;19;19922;-70
2023/07/11 02:33:32;;;;;;;7.00;1.90;;;;;;;18.17;65.42;101695.41;7384954;19;19922;-70
2023/07/11 02:36:01;;;;;;;3.00;1.65;;;;;;;18.19;65.58;101706.97;7379483;19;20728;-71
2023/07/11 02:38:30;;;;;;;3.40;1.40;;;;;;;18.18;64.97;101688.91;7382622;19;19926;-70
2023/07/11 02:40:58;;;;;;;5.47;1.95;;;;;;;18.19;65.18;101687.88;7382622;19;20022;-70
2023/07/11 02:43:27;;;;;;;3.63;1.73;;;;;;;18.21;64.59;101683.88;7384822;19;19929;-66
2023/07/11 02:45:55;;;;;;;4.13;1.80;;;;;;;18.19;64.75;101693.31;7381748;19;19926;-68
2023/07/11 02:48:28;;;;;;;3.47;1.60;;;;;;;18.15;64.78;101684.72;7383444;19;20306;-68
2023/07/11 02:50:57;;;;;;;5.05;1.50;;;;;;;18.12;64.60;101680.50;7381059;19;20362;-70
2023/07/11 02:53:25;;;;;;;3.13;1.60;;;;;;;18.10;64.85;101682.63;7382965;19;23072;-68
2023/07/11 02:55:55;;;;;;;5.25;1.52;;;;;;;18.07;65.27;101660.38;7379762;19;20272;-69
2023/07/11 02:58:24;;;;;;;3.90;1.80;;;;;;;18.03;65.20;101667.28;7382747;19;19933;-67
2023/07/11 03:00:57;;;;;;;2.38;1.45;;;;;;;18.00;65.44;101657.63;7373910;19;19947;-68
2023/07/11 03:03:29;;;;;;;3.80;1.35;;;;;;;17.98;65.13;101651.56;7342916;19;20284;-69
2023/07/11 03:05:58;;;;;;;6.43;1.60;;;;;;;17.96;65.23;101645.44;7343227;19;19989;-68
2023/07/11 03:08:27;;;;;;;4.18;1.55;;;;;;;17.98;64.36;101650.72;7369854;19;19946;-68
2023/07/11 03:11:00;;;;;;;6.53;1.35;;;;;;;18.00;63.65;101649.44;7376929;19;19930;-69
2023/07/11 03:13:29;;;;;;;5.82;1.48;;;;;;;18.04;63.51;101655.31;7384580;19;20409;-68
2023/07/11 03:16:02;;;;;;;3.10;1.30;;;;;;;18.10;63.02;101643.59;7379182;19;19922;-69
2023/07/11 03:18:33;;;;;;;2.47;1.20;;;;;;;18.14;62.68;101639.41;7382147;19;19930;-69
2023/07/11 03:21:04;;;;;;;5.00;1.40;;;;;;;18.19;62.83;101638.78;7380954;19;19922;-70
2023/07/11 03:23:33;;;;;;;5.50;1.35;;;;;;;18.22;62.57;101631.00;7381114;19;20368;-70
2023/07/11 03:26:02;;;;;;;5.53;1.48;;;;;;;18.24;62.93;101639.00;7379181;19;19922;-69
2023/07/11 03:28:31;;;;;;;3.13;1.70;;;;;;;18.25;62.66;101627.03;7381763;19;19930;-70
2023/07/11 03:30:59;;;;;;;4.40;1.65;;;;;;;18.24;62.62;101628.94;7384178;19;19986;-67
2023/07/11 03:33:28;;;;;;;4.07;1.42;;;;;;;18.25;62.47;101630.59;7382587;19;19925;-68
2023/07/11 03:35:59;;;;;;;2.95;1.40;;;;;;;18.26;62.32;101631.44;7379796;19;20527;-70
2023/07/11 03:38:28;;;;;;;3.15;1.33;;;;;;;18.22;61.79;101622.84;7381791;19;19948;-69
2023/07/11 03:40:57;;;;;;;5.13;1.65;;;;;;;18.19;62.32;101616.97;7381529;19;19914;-71
2023/07/11 03:43:25;;;;;;;5.40;1.65;;;;;;;18.16;62.45;101603.75;7380332;19;19927;-69
2023/07/11 03:45:54;;;;;;;5.07;1.13;;;;;;;18.13;62.83;101605.81;7378856;19;20043;-68
2023/07/11 03:48:22;;;;;;;5.07;1.60;;;;;;;18.13;62.70;101597.66;7381043;19;19926;-69
2023/07/11 03:50:51;;;;;;;3.65;1.50;;;;;;;18.13;63.49;101597.66;7381598;19;19922;-69
2023/07/11 03:53:23;;;;;;;4.13;1.60;;;;;;;18.13;63.56;101594.06;7382672;19;20380;-67
2023/07/11 03:55:52;;;;;;;3.25;1.58;;;;;;;18.09;63.56;101584.63;7380406;19;20383;-68
2023/07/11 03:58:20;;;;;;;6.40;1.63;;;;;;;18.05;63.62;101583.38;7379587;19;19922;-69
2023/07/11 04:00:49;;;;;;;4.07;1.55;;;;;;;18.05;63.98;101580.66;7380380;19;20551;-68
2023/07/11 04:03:18;;;;;;;4.88;1.63;;;;;;;18.09;64.44;101582.75;7381696;19;20437;-67
2023/07/11 04:05:46;;;;;;;3.47;1.65;;;;;;;18.10;64.23;101576.25;7379041;19;19927;-68
2023/07/11 04:08:15;;;;;;;3.15;1.42;;;;;;;18.12;64.49;101582.31;7379759;19;19926;-67
2023/07/11 04:10:46;;;;;;;4.53;1.40;;;;;;;18.12;65.01;101573.34;7380090;19;19939;-68
2023/07/11 04:13:15;;;;;;;5.07;1.77;;;;;;;18.13;64.67;101577.72;7379665;19;19929;-68
2023/07/11 04:15:41;;;;;;;5.53;1.45;;;;;;;18.13;65.16;101573.09;7380641;19;19952;-67
2023/07/11 04:18:09;;;;;;;7.97;2.00;;;;;;;18.16;64.83;101571.03;7380550;19;19928;-68
2023/07/11 04:20:38;;;;;;;4.25;1.67;;;;;;;18.16;65.14;101565.56;7382087;19;19949;-68
2023/07/11 04:23:07;;;;;;;3.80;1.80;;;;;;;18.13;64.56;101567.66;7374177;19;19914;-68
2023/07/11 04:25:36;;;;;;;4.95;1.80;;;;;;;18.13;65.12;101567.66;7380136;19;19918;-68
2023/07/11 04:28:08;;;;;;;4.53;1.52;;;;;;;18.14;65.59;101568.50;7381895;19;19930;-67
2023/07/11 04:30:37;;;;;;;13.80;1.63;;;;;;;18.17;65.56;101562.63;7379941;19;20391;-67
2023/07/11 04:33:05;;;;;;;6.00;1.80;;;;;;;18.18;65.64;101561.56;7380148;19;20327;-66
2023/07/11 04:35:34;;;;;;;2.00;1.30;;;;;;;18.21;65.41;101560.31;7379644;19;20280;-67
2023/07/11 04:38:03;;;;;;;3.38;1.60;;;;;;;18.18;66.06;101561.56;7378156;19;20345;-67
2023/07/11 04:40:31;;;;;;;3.30;1.63;;;;;;;18.18;66.28;101558.00;7378321;19;19918;-68
2023/07/11 04:43:01;;;;;;;6.85;1.80;;;;;;;18.20;65.87;101554.03;7381052;19;19926;-67
2023/07/11 04:45:32;;;;;;;5.13;1.98;;;;;;;18.22;66.36;101549.19;7380247;19;19922;-67
2023/07/11 04:48:03;;;;;;;3.58;1.80;;;;;;;18.23;66.39;101550.03;7379968;19;19919;-67
2023/07/11 04:50:32;;;;;;;5.43;1.60;;;;;;;18.24;66.60;101549.00;7382610;19;20002;-68
2023/07/11 04:53:00;;;;;;;4.20;1.70;;;;;;;18.28;66.60;101544.78;7379649;19;20218;-68
2023/07/11 04:55:29;;;;;;;6.25;1.70;;;;;;;18.29;67.02;101538.28;7379785;19;19919;-67
2023/07/11 04:57:58;;;;;;;4.47;1.52;;;;;;;18.31;66.56;101536.16;7381113;19;19925;-66
2023/07/11 05:00:26;;;;;;;4.47;1.95;;;;;;;18.34;66.75;101530.28;7374737;19;19939;-68
2023/07/11 05:02:57;;;;;;;5.22;2.03;;;;;;;18.35;66.78;101534.69;7376322;19;19955;-69
2023/07/11 05:05:26;;;;;;;6.38;2.13;;;;;;;18.36;66.84;101520.84;7376735;19;19922;-67
2023/07/11 05:07:54;;;;;;;4.72;1.95;;;;;;;18.36;66.62;101520.84;7380264;19;20357;-68
2023/07/11 05:10:23;;;;;;;5.30;2.15;;;;;;;18.36;67.20;101522.75;7375231;19;20612;-67
2023/07/11 05:12:52;;;;;;;5.03;2.25;;;;;;;18.41;66.69;101521.06;7379089;19;20274;-69
2023/07/11 05:15:20;;;;;;;3.03;2.10;;;;;;;18.44;66.94;101508.88;7379627;19;19918;-70
2023/07/11 05:17:49;;;;;;;4.97;2.38;;;;;;;18.44;67.46;101506.97;7376963;19;19961;-69
2023/07/11 05:20:20;;;;;;;4.28;2.33;;;;;;;18.48;67.42;101515.56;7379361;19;19923;-66
2023/07/11 05:22:48;;;;;;;4.28;2.10;;;;;;;18.50;67.46;101514.34;7375934;19;20007;-70
2023/07/11 05:25:18;;;;;;;5.50;2.25;;;;;;;18.55;67.69;101505.53;7377091;19;19910;-68
2023/07/11 05:27:47;;;;;;;4.55;2.25;;;;;;;18.61;67.36;101504.66;7380557;19;20589;-68
2023/07/11 05:30:16;;;;;;;5.43;2.10;;;;;;;18.70;67.57;101506.09;7378025;19;20347;-68
2023/07/11 05:32:45;;;;;;;3.05;2.03;;;;;;;18.78;67.41;101505.03;7377720;19;20922;-69
2023/07/11 05:35:13;;;;;;;3.13;2.03;;;;;;;18.86;67.43;101507.50;7376061;19;19919;-68
2023/07/11 05:37:44;;;;;;;6.18;1.63;;;;;;;18.93;67.36;101500.16;7374735;19;19944;-68
2023/07/11 05:40:14;;;;;;;7.47;2.25;;;;;;;19.02;66.40;101496.97;7378104;19;20018;-68
2023/07/11 05:42:42;;;;;;;5.10;2.17;;;;;;;19.12;66.54;101484.72;7377583;19;19914;-69
2023/07/11 05:45:12;;;;;;;4.75;2.20;;;;;;;19.25;66.32;101487.38;7378519;19;19923;-68
2023/07/11 05:47:41;;;;;;;9.43;2.60;;;;;;;19.39;65.72;101491.72;7379453;19;19957;-68
2023/07/11 05:50:10;;;;;;;5.82;2.20;;;;;;;19.50;65.56;101482.00;7382229;19;19926;-70
2023/07/11 05:52:39;;;;;;;5.20;2.20;;;;;;;19.59;64.78;101483.44;7379049;19;19930;-69
2023/07/11 05:55:11;;;;;;;5.03;1.90;;;;;;;19.66;64.74;101482.31;7375911;19;19947;-69
2023/07/11 05:57:39;;;;;;;4.05;2.20;;;;;;;19.76;64.43;101479.91;7371850;19;19952;-70
2023/07/11 06:00:11;;;;;;;6.93;2.05;;;;;;;19.83;64.15;101475.22;7376123;19;19930;-69
2023/07/11 06:02:40;;;;;;;6.65;2.25;;;;;;;19.89;64.43;101484.41;7383008;19;19952;-68
2023/07/11 06:05:09;;;;;;;7.05;2.13;;;;;;;19.97;63.96;101483.31;7382360;19;19939;-68
2023/07/11 06:07:39;;;;;;;5.68;2.75;;;;;;;20.05;63.75;101477.56;7383195;19;20353;-69
2023/07/11 06:10:10;;;;;;;3.70;1.73;;;;;;;20.13;63.76;101469.91;7382476;19;20258;-68
2023/07/11 06:12:39;;;;;;;4.60;2.17;;;;;;;20.17;63.01;101470.28;7385996;19;19918;-69
2023/07/11 06:15:09;;;;;;;8.82;2.17;;;;;;;20.19;63.24;101471.72;7382339;19;19934;-69
2023/07/11 06:17:37;;;;;;;5.55;2.08;;;;;;;20.22;63.27;101470.47;7380521;19;20594;-68
2023/07/11 06:20:09;;;;;;;5.57;2.08;;;;;;;20.25;63.09;101465.34;7357130;19;19922;-67
2023/07/11 06:22:37;;;;;;;4.90;2.40;;;;;;;20.28;62.68;101456.69;7344126;19;19926;-68
2023/07/11 06:25:07;;;;;;;6.25;2.40;;;;;;;20.29;62.52;101452.94;7342262;19;20031;-67
2023/07/11 06:27:39;;;;;;;5.13;2.10;;;;;;;20.32;62.91;101454.41;7344624;19;19915;-69
2023/07/11 06:30:09;;;;;;;4.43;2.03;;;;;;;20.38;63.12;101453.47;7347248;19;19944;-68
2023/07/11 06:32:37;;;;;;;8.18;2.20;;;;;;;20.43;62.93;101448.16;7347150;19;19943;-68
2023/07/11 06:35:07;;;;;;;3.58;1.80;;;;;;;20.51;62.92;101436.06;7343118;19;19954;-68
2023/07/11 06:37:37;;;;;;;3.50;2.10;;;;;;;20.61;63.13;101428.16;7354984;19;19986;-69
2023/07/11 06:40:08;;;;;;;4.07;1.88;;;;;;;20.69;62.05;101431.41;7379550;19;19948;-70
2023/07/11 06:42:40;;;;;;;4.80;2.08;;;;;;;20.81;62.81;101431.47;7380356;19;19942;-66
2023/07/11 06:45:10;;;;;;;4.68;1.95;;;;;;;20.91;61.61;101426.28;7382889;19;19934;-68
2023/07/11 06:47:38;;;;;;;6.07;1.90;;;;;;;21.02;61.24;101420.00;7380746;19;19919;-68
2023/07/11 06:50:08;;;;;;;4.75;2.10;;;;;;;21.11;61.02;101415.88;7388619;19;19919;-69
2023/07/11 06:52:37;;;;;;;5.00;1.70;;;;;;;21.20;60.42;101424.63;7381751;19;19923;-69
2023/07/11 06:55:06;;;;;;;3.60;1.70;;;;;;;21.30;60.25;101418.59;7380254;19;19918;-68
2023/07/11 06:57:35;;;;;;;2.33;1.80;;;;;;;21.39;60.06;101426.25;7383254;19;19922;-68
2023/07/11 07:00:08;;;;;;;5.55;1.83;;;;;;;21.46;59.11;101413.25;7380735;19;20855;-68
2023/07/11 07:02:37;;;;;;;4.57;2.00;;;;;;;21.52;59.25;101412.31;7381760;19;19922;-68
2023/07/11 07:05:06;;;;;;;5.68;2.00;;;;;;;21.58;58.32;101411.38;7383073;19;19922;-67
2023/07/11 07:07:35;;;;;;;3.00;1.50;;;;;;;21.64;58.65;101409.59;7383130;19;20274;-70
2023/07/11 07:10:03;;;;;;;5.65;2.05;;;;;;;21.69;58.39;101415.22;7382648;19;19954;-68
2023/07/11 07:12:32;;;;;;;6.65;2.05;;;;;;;21.73;58.17;101399.94;7380508;19;19948;-69
2023/07/11 07:15:01;;;;;;;4.88;2.10;;;;;;;21.77;58.44;101409.38;7379924;19;19930;-69
2023/07/11 07:17:32;;;;;;;5.45;2.30;;;;;;;21.83;58.68;101402.09;7374905;19;19929;-68
2023/07/11 07:20:01;;;;;;;6.47;1.92;;;;;;;21.90;58.18;101400.91;7380253;19;19926;-69
2023/07/11 07:22:29;;;;;;;5.47;1.73;;;;;;;22.01;58.14;101399.25;7382767;19;19973;-68
2023/07/11 07:24:58;;;;;;;5.05;1.75;;;;;;;22.10;58.58;101400.56;7381874;19;19929;-68
2023/07/11 07:27:27;;;;;;;5.80;1.92;;;;;;;22.17;57.92;101398.53;7380931;19;19922;-69
2023/07/11 07:29:56;;;;;;;7.78;2.30;;;;;;;22.23;57.52;101400.31;7382087;19;19926;-68
2023/07/11 07:32:25;;;;;;;3.88;2.05;;;;;;;22.31;57.56;101391.69;7381672;19;20540;-67
2023/07/11 07:34:56;;;;;;;5.60;2.20;;;;;;;22.39;57.99;101396.00;7384839;19;19923;-69
2023/07/11 07:37:24;;;;;;;4.00;2.03;;;;;;;22.47;58.38;101398.34;7375519;19;20352;-67
2023/07/11 07:39:53;;;;;;;5.25;2.33;;;;;;;22.54;58.00;101401.78;7374198;19;19937;-70
2023/07/11 07:42:22;;;;;;;5.03;1.80;;;;;;;22.61;57.39;101392.31;7378238;19;20694;-70
2023/07/11 07:44:51;;;;;;;6.13;2.30;;;;;;;22.70;56.35;101380.97;7381632;19;19929;-69
2023/07/11 07:47:20;;;;;;;4.75;2.00;;;;;;;22.78;56.11;101384.19;7383649;19;19932;-70
2023/07/11 07:49:49;;;;;;;4.25;1.98;;;;;;;22.86;55.69;101385.72;7375730;19;19974;-72
2023/07/11 07:52:20;;;;;;;5.85;2.17;;;;;;;22.93;55.00;101384.47;7380866;19;19926;-70
2023/07/11 07:54:49;;;;;;;5.03;1.70;;;;;;;23.00;56.28;101376.06;7380800;19;19926;-70
2023/07/11 07:57:17;;;;;;;7.75;1.90;;;;;;;23.07;56.20;101385.03;7381728;19;19923;-71
2023/07/11 07:59:46;;;;;;;4.55;2.20;;;;;;;23.13;56.02;101385.91;7380612;19;19928;-69
2023/07/11 08:02:15;;;;;;;3.55;1.80;;;;;;;23.20;55.90;101381.97;7378412;19;19922;-69
2023/07/11 08:04:43;;;;;;;3.65;1.88;;;;;;;23.29;55.26;101382.38;7387306;19;19923;-69
2023/07/11 08:07:12;;;;;;;2.90;1.90;;;;;;;23.32;55.01;101373.63;7363323;19;19930;-69
2023/07/11 08:09:43;;;;;;;3.25;2.10;;;;;;;23.34;55.41;101371.47;7371396;19;19949;-68
2023/07/11 08:12:13;;;;;;;4.20;2.10;;;;;;;23.31;54.37;101375.53;7380422;19;19930;-68
2023/07/11 08:14:43;;;;;;;5.53;2.03;;;;;;;23.32;54.14;101368.97;7375679;19;19922;-67
2023/07/11 08:17:13;;;;;;;7.45;1.98;;;;;;;23.36;54.20;101353.63;7364897;19;20322;-67
2023/07/11 08:19:41;;;;;;;5.45;2.00;;;;;;;23.45;54.21;101349.41;7376955;19;19933;-69
2023/07/11 08:22:10;;;;;;;3.55;1.73;;;;;;;23.55;54.01;101350.66;7376322;19;19942;-69
2023/07/11 08:24:39;;;;;;;3.72;2.00;;;;;;;23.63;54.24;101348.31;7374856;19;19919;-68
2023/07/11 08:27:10;;;;;;;6.13;2.42;;;;;;;23.69;52.94;101352.81;7381053;19;19935;-69
2023/07/11 08:29:44;;;;;;;4.82;2.05;;;;;;;23.73;53.65;101348.47;7379891;19;20467;-69
2023/07/11 08:32:14;;;;;;;6.03;2.17;;;;;;;23.78;53.33;101345.78;7381270;19;22950;-68
2023/07/11 08:34:43;;;;;;;2.92;1.77;;;;;;;23.81;53.20;101330.72;7378711;19;19932;-67
2023/07/11 08:37:13;;;;;;;3.35;1.75;;;;;;;23.83;53.85;101332.13;7380948;19;19946;-68
2023/07/11 08:39:42;;;;;;;2.72;1.77;;;;;;;23.90;53.78;101326.44;7380499;19;20392;-68
2023/07/11 08:42:25;;;;;;;4.43;1.90;;;;;;;23.92;53.21;101329.75;7377835;19;19918;-68
2023/07/11 08:45:01;;;;;;;2.83;1.80;;;;;;;24.01;53.46;101324.66;7401754;19;19927;-69
2023/07/11 08:47:34;;;;;;;6.13;2.58;;;;;;;24.12;52.94;101324.50;7381284;19;19919;-67
2023/07/11 08:50:08;;;;;;;5.28;2.53;;;;;;;24.24;52.27;101316.19;7383330;19;19922;-68
2023/07/11 08:52:38;;;;;;;7.35;2.20;;;;;;;24.32;52.86;101313.81;7383659;19;19923;-69
2023/07/11 08:55:13;;;;;;;5.18;2.10;;;;;;;24.47;52.92;101304.03;7377446;19;19922;-69
2023/07/11 08:57:48;;;;;;;6.53;1.85;;;;;;;24.56;52.29;101297.81;7379938;19;22516;-70
2023/07/11 09:00:20;;;;;;;5.65;1.88;;;;;;;24.63;51.81;101298.47;7378291;19;19919;-70
2023/07/11 09:02:57;;;;;;;2.78;1.90;;;;;;;24.68;52.70;101300.44;7380335;19;19919;-69
2023/07/11 09:05:37;;;;;;;5.10;2.15;;;;;;;24.67;51.64;101298.78;7375868;19;20288;-71
2023/07/11 09:08:07;;;;;;;3.55;1.70;;;;;;;24.68;52.38;101295.72;7380722;19;19926;-69
2023/07/11 09:10:46;;;;;;;4.88;1.77;;;;;;;24.68;52.46;101289.41;7377855;19;19923;-68
2023/07/11 09:13:41;;;;;;;7.57;1.92;;;;;;;24.71;51.50;101292.47;7379039;19;19922;-70
2023/07/11 09:16:18;;;;;;;3.28;1.70;;;;;;;24.78;51.50;101295.00;7376415;19;19922;-68
2023/07/11 09:18:54;;;;;;;3.30;2.25;;;;;;;24.84;50.85;101280.19;7378763;19;19944;-71
2023/07/11 09:21:30;;;;;;;7.45;1.80;;;;;;;24.98;50.03;101286.16;7377110;19;19930;-69
2023/07/11 09:24:07;;;;;;;4.75;2.10;;;;;;;25.05;48.75;101278.47;7374489;19;19921;-68
2023/07/11 09:26:45;;;;;;;5.82;2.47;;;;;;;25.14;50.79;101261.19;7378646;19;19931;-68
2023/07/11 09:29:18;;;;;;;3.10;1.90;;;;;;;25.21;50.98;101258.19;7377895;19;19938;-69
2023/07/11 09:31:51;;;;;;;5.88;1.95;;;;;;;25.28;49.25;101265.13;7377781;19;19927;-68
2023/07/11 09:34:29;;;;;;;3.97;1.80;;;;;;;25.40;48.89;101267.72;7377877;19;19915;-68
2023/07/11 09:36:59;;;;;;;5.80;1.75;;;;;;;25.51;48.21;101254.81;7389167;19;20256;-68
2023/07/11 09:39:34;;;;;;;6.05;2.17;;;;;;;25.60;48.55;101256.00;7383670;19;19918;-69
2023/07/11 09:42:10;;;;;;;5.80;1.63;;;;;;;25.72;47.25;101264.91;7373877;19;19925;-66
2023/07/11 09:44:42;;;;;;;4.18;1.23;;;;;;;25.80;48.43;101264.38;7382965;19;19914;-65
2023/07/11 09:47:19;;;;;;;4.70;1.85;;;;;;;25.78;47.52;101271.28;7379601;19;20365;-64
2023/07/11 09:49:50;;;;;;;;;;;;;;;25.71;47.19;101261.31;7383864;19;19923;-66
2023/07/11 09:52:26;;;;;;;5.38;1.60;;;;;;;25.83;47.51;101263.03;7383762;19;19915;-66
2023/07/11 09:54:56;;;;;;;6.38;2.08;;;;;;;25.98;47.89;101260.31;7381381;19;19939;-66
2023/07/11 09:57:25;;;;;;;4.38;1.70;;;;;;;26.04;47.74;101259.25;7384322;19;20312;-66
2023/07/11 10:00:03;;;;;;;2.05;1.33;;;;;;;26.14;46.68;101257.38;7383374;19;19948;-66
2023/07/11 10:02:32;;;;;;;6.22;2.00;;;;;;;26.25;46.90;101243.63;7385482;19;19930;-67
2023/07/11 10:05:01;;;;;;;5.18;1.77;;;;;;;26.30;47.48;101251.91;7378712;19;19918;-66
2023/07/11 10:07:34;;;;;;;3.40;1.63;;;;;;;26.33;46.92;101251.38;7382238;19;19943;-66
2023/07/11 10:10:05;;;;;;;9.27;1.92;;;;;;;26.41;46.79;101242.53;7383609;19;19952;-66
2023/07/11 10:12:35;;;;;;;4.32;1.60;;;;;;;26.43;46.87;101240.34;7383655;19;20306;-65
2023/07/11 10:15:15;;;;;;;4.00;1.60;;;;;;;26.50;46.45;101243.66;7381498;19;20271;-66
2023/07/11 10:17:46;;;;;;;3.95;1.65;;;;;;;26.57;46.09;101235.97;7383535;19;19928;-66
2023/07/11 10:20:20;;;;;;;3.25;1.50;;;;;;;26.55;46.01;101243.69;7382662;19;19922;-67
2023/07/11 10:22:51;;;;;;;4.63;1.70;;;;;;;26.52;45.30;101231.25;7385081;19;19952;-68
2023/07/11 10:25:21;;;;;;;;;;;;;;;26.37;45.29;101227.63;7386078;19;19923;-66
2023/07/11 10:27:55;;;;;;;5.95;1.60;;;;;;;26.56;45.66;101226.84;7385051;19;19936;-66
2023/07/11 10:30:29;;;;;;;5.30;2.03;;;;;;;26.67;44.57;101224.06;7382550;19;19928;-66
2023/07/11 10:33:01;;;;;;;9.20;2.13;;;;;;;26.78;42.67;101223.81;7379589;19;19926;-66
2023/07/11 10:35:30;;;;;;;7.18;1.58;;;;;;;26.90;42.52;101229.94;7384116;19;19914;-66
2023/07/11 10:38:04;;;;;;;3.05;1.52;;;;;;;27.06;41.80;101230.75;7378463;19;19967;-66
2023/07/11 10:40:36;;;;;;;4.55;2.05;;;;;;;27.25;42.66;101240.16;7380210;19;19923;-66
2023/07/11 10:43:13;;;;;;;6.43;2.20;;;;;;;27.40;41.82;101225.44;7380769;19;19972;-67
2023/07/11 10:45:46;;;;;;;;;;;;;;;27.46;40.99;101219.63;7381332;19;19926;-67
2023/07/11 10:48:26;;;;;;;5.30;2.10;;;;;;;27.63;40.63;101213.78;7381351;19;20340;-66
2023/07/11 10:51:02;;;;;;;6.38;1.52;;;;;;;27.60;41.88;101208.81;7379316;19;19934;-66
2023/07/11 10:53:35;;;;;;;5.07;2.20;;;;;;;27.65;41.98;101214.34;7381580;19;19930;-66
2023/07/11 10:56:08;;;;;;;6.32;2.20;;;;;;;27.82;40.83;101208.47;7382940;19;19930;-67
2023/07/11 10:58:37;;;;;;;4.45;1.98;;;;;;;27.97;41.47;101208.38;7382713;19;19923;-67
2023/07/11 11:01:21;;;;;;;6.68;1.92;;;;;;;28.01;38.98;101211.41;7381749;19;20302;-66
2023/07/11 11:03:57;;;;;;;4.47;1.80;;;;;;;27.97;40.39;101189.81;7382948;19;19926;-67
2023/07/11 11:06:50;;;;;;;2.63;1.88;;;;;;;28.07;39.52;101185.34;7382591;19;19918;-66
2023/07/11 11:09:25;;;;;;;4.20;1.88;;;;;;;27.96;38.51;101188.16;7383662;19;19930;-67
2023/07/11 11:12:03;;;;;;;4.93;1.70;;;;;;;28.11;38.77;101189.22;7382859;19;19915;-67
2023/07/11 11:14:49;;;;;;;5.22;1.85;;;;;;;28.30;37.72;101185.50;7382782;19;19943;-67
2023/07/11 11:17:36;;;;;;;2.90;1.50;;;;;;;28.48;38.47;101185.97;7383420;19;19929;-66
2023/07/11 11:20:18;;;;;;;2.05;1.40;;;;;;;28.57;36.32;101198.06;7383187;19;19921;-67
2023/07/11 11:23:02;;;;;;;4.07;1.65;;;;;;;28.72;36.87;101182.19;7383470;19;20328;-66
2023/07/11 11:25:40;;;;;;;4.10;1.65;;;;;;;28.76;36.56;101169.38;7369834;19;19934;-67
2023/07/11 11:28:21;;;;;;;4.15;1.80;;;;;;;28.84;35.82;101176.25;7382816;19;20657;-67
2023/07/11 11:30:59;;;;;;;8.45;1.73;;;;;;;29.03;36.16;101179.97;7380981;19;19926;-67
2023/07/11 11:33:49;;;;;;;3.78;1.65;;;;;;;29.14;35.75;101180.66;7380080;19;19955;-68
2023/07/11 11:36:28;;;;;;;3.10;1.27;;;;;;;29.30;36.22;101182.19;7385321;19;20020;-67
2023/07/11 11:39:14;;;;;;;4.25;1.40;;;;;;;29.29;35.08;101177.78;7380749;19;19930;-67
2023/07/11 11:41:47;;;;;;;3.00;1.17;;;;;;;29.19;36.32;101167.56;7381140;19;20048;-67
2023/07/11 11:44:20;;;;;;;4.18;1.48;;;;;;;29.05;35.74;101172.16;7356271;19;19930;-66